Time;durP1;ratioP1;P1;durP2;ratioP2;P2;SDS_P1;SDS_P2;PMS_P1;PMS_P2;Temp;Humidity;BMP_temperature;BMP_pressure;BME280_temperature;BME280_humidity;BME280_pressure;Samples;Min_cycle;Max_cycle;Signal;HPM_P1;HPM_P2
2023/05/09 00:00:17;;;;;;;85.70;45.22;;;17.40;99.90;;;;;;4967056;28;20097;-79
2023/05/09 00:02:44;;;;;;;85.70;44.95;;;17.40;99.90;;;;;;4968418;28;20065;-82
2023/05/09 00:05:10;;;;;;;77.93;41.47;;;17.40;99.90;;;;;;4966786;28;20030;-81
2023/05/09 00:07:36;;;;;;;82.75;45.45;;;17.40;99.90;;;;;;4965903;28;20015;-81
2023/05/09 00:10:03;;;;;;;85.43;44.95;;;17.40;99.90;;;;;;4967658;28;20059;-79
2023/05/09 00:12:29;;;;;;;84.60;45.05;;;17.40;99.90;;;;;;4949473;28;20125;-81
2023/05/09 00:14:55;;;;;;;78.40;43.83;;;17.40;99.90;;;;;;4963416;28;20194;-82
2023/05/09 00:17:22;;;;;;;81.53;44.05;;;17.50;99.90;;;;;;4965200;28;20023;-81
2023/05/09 00:19:50;;;;;;;78.70;41.03;;;17.40;99.90;;;;;;4968900;28;20094;-80
2023/05/09 00:22:22;;;;;;;74.20;40.85;;;17.50;99.90;;;;;;4968135;28;20026;-82
2023/05/09 00:24:48;;;;;;;73.00;41.75;;;17.50;99.90;;;;;;4971215;28;21057;-81
2023/05/09 00:27:15;;;;;;;77.03;41.08;;;17.50;99.90;;;;;;4968230;28;20102;-82
2023/05/09 00:29:41;;;;;;;75.13;42.45;;;17.50;99.90;;;;;;4969352;28;20023;-82
2023/05/09 00:32:06;;;;;;;75.47;43.22;;;17.40;99.90;;;;;;4976764;28;20031;-80
2023/05/09 00:34:32;;;;;;;73.88;40.83;;;17.50;99.90;;;;;;4976441;28;20074;-82
2023/05/09 00:36:58;;;;;;;75.03;43.13;;;17.40;99.90;;;;;;4976804;28;20078;-83
2023/05/09 00:39:23;;;;;;;74.32;43.05;;;17.50;99.90;;;;;;4970672;28;20069;-81
2023/05/09 00:41:50;;;;;;;75.82;42.85;;;17.50;99.90;;;;;;4966539;28;20035;-83
2023/05/09 00:44:15;;;;;;;71.65;42.75;;;17.50;99.90;;;;;;4948702;28;20027;-83
2023/05/09 00:46:42;;;;;;;74.80;41.58;;;17.50;99.90;;;;;;4968743;28;20157;-83
2023/05/09 00:49:07;;;;;;;81.25;44.03;;;17.50;99.90;;;;;;4943383;28;20075;-80
2023/05/09 00:51:35;;;;;;;78.35;42.72;;;17.50;99.90;;;;;;4967767;28;20288;-83
2023/05/09 00:54:01;;;;;;;75.35;43.58;;;17.50;99.90;;;;;;4964020;28;20023;-83
2023/05/09 00:56:27;;;;;;;79.68;42.78;;;17.50;99.90;;;;;;4968313;28;20090;-81
2023/05/09 00:58:54;;;;;;;78.68;44.30;;;17.50;99.90;;;;;;4968335;28;20058;-83
2023/05/09 01:01:20;;;;;;;79.18;44.30;;;17.50;99.90;;;;;;4968199;28;20412;-82
2023/05/09 01:03:46;;;;;;;74.72;44.20;;;17.50;99.90;;;;;;4963881;28;20034;-80
2023/05/09 01:06:41;;;;;;;81.93;44.13;;;17.40;99.90;;;;;;4967516;28;20030;-82
2023/05/09 01:09:13;;;;;;;77.70;42.20;;;17.50;99.90;;;;;;4964723;28;20023;-81
2023/05/09 01:11:47;;;;;;;73.88;41.75;;;17.50;99.90;;;;;;4964154;28;20477;-82
2023/05/09 01:14:25;;;;;;;83.68;43.20;;;17.50;99.90;;;;;;4963642;28;20035;-80
2023/05/09 01:17:04;;;;;;;81.88;45.22;;;17.50;99.90;;;;;;4948293;28;20046;-82
2023/05/09 01:19:49;;;;;;;80.43;43.80;;;17.50;99.90;;;;;;4949479;28;20107;-82
2023/05/09 01:22:16;;;;;;;75.70;42.95;;;17.50;99.90;;;;;;4965336;28;20031;-80
2023/05/09 01:24:59;;;;;;;77.05;42.78;;;17.50;99.90;;;;;;4961834;28;20023;-81
2023/05/09 01:27:43;;;;;;;81.20;42.55;;;17.50;99.90;;;;;;4965837;28;20109;-79
2023/05/09 01:30:11;;;;;;;81.78;44.75;;;17.60;99.90;;;;;;4968956;28;20031;-82
2023/05/09 01:32:38;;;;;;;86.70;44.47;;;17.60;99.90;;;;;;4967697;28;20492;-82
2023/05/09 01:35:05;;;;;;;76.95;42.83;;;17.60;99.90;;;;;;4965935;28;20081;-82
2023/05/09 01:37:33;;;;;;;81.80;43.15;;;17.50;99.90;;;;;;4967425;28;20488;-82
2023/05/09 01:40:06;;;;;;;80.22;43.45;;;17.50;99.90;;;;;;4971440;28;20070;-81
2023/05/09 01:42:41;;;;;;;81.85;42.72;;;17.50;99.90;;;;;;4966823;28;20027;-80
2023/05/09 01:45:08;;;;;;;75.88;42.42;;;17.50;99.90;;;;;;4966893;28;20026;-82
2023/05/09 01:47:36;;;;;;;73.97;42.38;;;17.50;99.90;;;;;;4967250;28;20027;-80
2023/05/09 01:50:02;;;;;;;82.05;44.50;;;17.50;99.90;;;;;;4968559;28;20090;-82
2023/05/09 01:52:28;;;;;;;78.30;43.72;;;17.50;99.90;;;;;;4966121;28;20031;-82
2023/05/09 01:54:55;;;;;;;82.43;45.30;;;17.50;99.90;;;;;;4967370;28;20511;-79
2023/05/09 01:57:22;;;;;;;85.35;44.53;;;17.50;99.90;;;;;;4966904;28;20477;-83
2023/05/09 01:59:49;;;;;;;76.00;42.72;;;17.50;99.90;;;;;;4971811;28;20118;-82
2023/05/09 02:02:16;;;;;;;81.32;44.17;;;17.50;99.90;;;;;;4971514;28;20055;-81
2023/05/09 02:04:42;;;;;;;73.63;39.70;;;17.60;99.90;;;;;;4967669;28;20374;-82
2023/05/09 02:07:10;;;;;;;76.90;42.65;;;17.60;99.90;;;;;;4949208;28;20374;-81
2023/05/09 02:09:35;;;;;;;78.68;43.65;;;17.60;99.90;;;;;;4950291;28;20027;-80
2023/05/09 02:12:03;;;;;;;84.90;47.25;;;17.60;99.90;;;;;;4969446;28;20027;-79
2023/05/09 02:14:29;;;;;;;84.95;44.80;;;17.50;99.90;;;;;;4968557;28;20027;-81
2023/05/09 02:16:55;;;;;;;83.70;46.50;;;17.50;99.90;;;;;;4967408;28;20023;-82
2023/05/09 02:19:20;;;;;;;81.78;43.85;;;17.50;99.90;;;;;;4968435;28;20089;-81
2023/05/09 02:21:46;;;;;;;83.68;46.13;;;17.50;99.90;;;;;;4971025;28;20118;-82
2023/05/09 02:24:12;;;;;;;77.30;44.20;;;17.40;99.90;;;;;;4958603;28;20489;-82
2023/05/09 02:26:39;;;;;;;81.57;43.05;;;17.50;99.90;;;;;;4975064;28;20019;-83
2023/05/09 02:29:06;;;;;;;88.07;46.65;;;17.40;99.90;;;;;;4969134;28;20105;-82
2023/05/09 02:31:33;;;;;;;87.40;45.97;;;17.40;99.90;;;;;;4974127;28;20010;-82
2023/05/09 02:34:00;;;;;;;88.95;45.80;;;17.40;99.90;;;;;;4971120;28;20054;-83
2023/05/09 02:36:27;;;;;;;86.00;47.70;;;17.40;99.90;;;;;;4968223;28;20524;-82
2023/05/09 02:38:53;;;;;;;100.32;52.33;;;17.40;99.90;;;;;;4968936;28;20062;-82
2023/05/09 02:41:18;;;;;;;91.32;50.13;;;17.30;99.90;;;;;;4971586;28;20035;-82
2023/05/09 02:43:44;;;;;;;82.32;46.28;;;17.30;99.90;;;;;;4970936;28;20327;-81
2023/05/09 02:46:10;;;;;;;94.13;48.28;;;17.30;99.90;;;;;;4979965;28;20026;-81
2023/05/09 02:48:36;;;;;;;97.65;47.97;;;17.30;99.90;;;;;;4964132;28;20154;-82
2023/05/09 02:51:02;;;;;;;98.20;51.08;;;17.30;99.90;;;;;;4984150;28;20041;-82
2023/05/09 02:53:27;;;;;;;92.22;47.97;;;17.30;99.90;;;;;;4977379;28;20023;-84
2023/05/09 02:55:53;;;;;;;94.43;47.78;;;17.30;99.90;;;;;;4970985;28;20035;-81
2023/05/09 02:58:25;;;;;;;95.82;50.50;;;17.30;99.90;;;;;;4968070;28;20433;-83
2023/05/09 03:00:50;;;;;;;90.05;49.72;;;17.30;99.90;;;;;;4969232;28;20030;-83
2023/05/09 03:03:16;;;;;;;91.60;49.38;;;17.30;99.90;;;;;;4966644;28;20031;-82
2023/05/09 03:05:42;;;;;;;92.57;48.80;;;17.30;99.90;;;;;;4966847;28;20090;-82
2023/05/09 03:08:07;;;;;;;97.47;47.95;;;17.30;99.90;;;;;;4968280;28;20466;-82
2023/05/09 03:10:33;;;;;;;92.20;49.17;;;17.20;99.90;;;;;;4967671;28;20551;-80
2023/05/09 03:12:59;;;;;;;95.50;49.30;;;17.20;99.90;;;;;;4966120;28;20050;-83
2023/05/09 03:15:25;;;;;;;89.63;48.72;;;17.20;99.90;;;;;;4971014;28;20572;-84
2023/05/09 03:17:51;;;;;;;92.95;49.65;;;17.20;99.90;;;;;;4966284;28;20142;-82
2023/05/09 03:20:17;;;;;;;85.43;46.20;;;17.20;99.90;;;;;;4968757;28;20042;-82
2023/05/09 03:22:43;;;;;;;99.85;50.72;;;17.10;99.90;;;;;;4967518;28;20038;-83
2023/05/09 03:25:09;;;;;;;95.20;49.65;;;17.10;99.90;;;;;;4964512;28;20030;-82
2023/05/09 03:27:34;;;;;;;92.30;48.47;;;17.10;99.90;;;;;;4965685;28;20027;-81
2023/05/09 03:30:00;;;;;;;95.07;49.08;;;17.10;99.90;;;;;;4969817;28;20069;-82
2023/05/09 03:32:26;;;;;;;95.03;49.03;;;17.10;99.90;;;;;;4969050;28;20162;-83
2023/05/09 03:34:51;;;;;;;94.20;50.33;;;17.10;99.90;;;;;;4968131;28;20055;-82
2023/05/09 03:37:17;;;;;;;91.80;49.67;;;17.10;99.90;;;;;;4969931;28;20019;-82
2023/05/09 03:39:43;;;;;;;74.25;42.55;;;17.10;99.90;;;;;;4952106;28;20141;-83
2023/05/09 03:42:08;;;;;;;87.03;48.97;;;17.00;99.90;;;;;;4967001;28;20027;-84
2023/05/09 03:44:34;;;;;;;84.93;46.70;;;17.00;99.90;;;;;;4966988;28;20409;-82
2023/05/09 03:46:59;;;;;;;90.95;49.15;;;17.00;99.90;;;;;;4967335;28;20023;-85
2023/05/09 03:49:25;;;;;;;83.93;44.42;;;16.90;99.90;;;;;;4965573;28;20201;-83
2023/05/09 03:51:51;;;;;;;79.55;43.63;;;16.90;99.90;;;;;;4967989;28;20082;-87
2023/05/09 03:54:16;;;;;;;74.20;41.97;;;16.90;99.90;;;;;;4966174;28;20037;-85
2023/05/09 03:56:43;;;;;;;74.45;43.40;;;16.90;99.90;;;;;;4968633;28;20071;-86
2023/05/09 03:59:09;;;;;;;78.97;46.38;;;16.90;99.90;;;;;;4966971;28;20031;-85
2023/05/09 04:01:34;;;;;;;81.43;44.80;;;16.90;99.90;;;;;;4967001;28;20026;-83
2023/05/09 04:04:02;;;;;;;73.60;42.70;;;16.90;99.90;;;;;;4969913;28;20031;-85
2023/05/09 04:06:28;;;;;;;63.30;35.42;;;16.90;99.90;;;;;;4968463;28;20110;-84
2023/05/09 04:08:56;;;;;;;76.55;42.10;;;16.90;99.90;;;;;;4967688;28;20062;-85
2023/05/09 04:11:22;;;;;;;77.47;41.40;;;16.90;99.90;;;;;;4964713;28;20038;-83
2023/05/09 04:13:48;;;;;;;77.22;42.85;;;16.90;99.90;;;;;;4965607;28;20370;-85
2023/05/09 04:16:14;;;;;;;75.88;44.20;;;16.90;99.90;;;;;;4970058;28;20035;-84
2023/05/09 04:18:41;;;;;;;78.00;44.00;;;16.90;99.90;;;;;;4968926;28;20159;-83
2023/05/09 04:21:06;;;;;;;77.40;43.28;;;16.90;99.90;;;;;;4966272;28;20135;-84
2023/05/09 04:23:32;;;;;;;67.40;40.03;;;16.90;99.90;;;;;;4967969;28;20294;-84
2023/05/09 04:25:58;;;;;;;81.82;43.90;;;16.90;99.90;;;;;;4948395;28;20033;-84
2023/05/09 04:28:24;;;;;;;69.57;40.67;;;16.90;99.90;;;;;;4967101;28;20468;-84
2023/05/09 04:30:50;;;;;;;63.28;37.67;;;16.80;99.90;;;;;;4952253;28;20039;-84
2023/05/09 04:33:15;;;;;;;72.65;40.42;;;16.80;99.90;;;;;;4967578;28;20031;-84
2023/05/09 04:35:41;;;;;;;70.90;40.47;;;16.80;99.90;;;;;;4969442;28;20097;-83
2023/05/09 04:38:07;;;;;;;63.33;36.45;;;16.80;99.90;;;;;;4964949;28;20023;-82
2023/05/09 04:40:32;;;;;;;65.53;38.42;;;16.80;99.90;;;;;;4965594;28;20039;-81
2023/05/09 04:42:58;;;;;;;71.28;41.92;;;16.70;99.90;;;;;;4944350;28;20098;-83
2023/05/09 04:45:24;;;;;;;68.03;39.13;;;16.80;99.90;;;;;;4968853;28;20473;-82
2023/05/09 04:47:49;;;;;;;66.45;38.47;;;16.70;99.90;;;;;;4949449;28;20374;-84
2023/05/09 04:50:15;;;;;;;66.55;38.70;;;16.70;99.90;;;;;;4969741;28;20959;-82
2023/05/09 04:52:41;;;;;;;67.10;39.65;;;16.70;99.90;;;;;;4967458;28;20478;-82
2023/05/09 04:55:08;;;;;;;63.25;38.08;;;16.70;99.90;;;;;;4974239;28;20030;-83
2023/05/09 04:57:33;;;;;;;59.50;35.28;;;16.70;99.90;;;;;;4970750;28;20429;-82
2023/05/09 04:59:59;;;;;;;61.97;36.92;;;16.70;99.90;;;;;;4982195;28;20601;-84
2023/05/09 05:02:24;;;;;;;60.95;36.88;;;16.70;99.90;;;;;;4983822;28;20074;-82
2023/05/09 05:04:51;;;;;;;53.20;32.40;;;16.70;99.90;;;;;;4986179;28;20095;-81
2023/05/09 05:07:16;;;;;;;67.93;39.95;;;16.70;99.90;;;;;;4970902;28;20385;-81
2023/05/09 05:09:42;;;;;;;67.80;41.78;;;16.70;99.90;;;;;;4971005;28;20033;-83
2023/05/09 05:12:08;;;;;;;58.47;35.33;;;16.70;99.90;;;;;;4970370;28;20030;-81
2023/05/09 05:14:34;;;;;;;65.60;39.05;;;16.70;99.90;;;;;;4970766;28;20023;-81
2023/05/09 05:16:59;;;;;;;61.97;38.35;;;16.70;99.90;;;;;;4969361;28;20031;-82
2023/05/09 05:19:25;;;;;;;53.90;34.42;;;16.60;99.90;;;;;;4964477;28;20033;-83
2023/05/09 05:21:51;;;;;;;60.08;35.78;;;16.60;99.90;;;;;;4970643;28;20039;-83
2023/05/09 05:24:16;;;;;;;58.40;37.63;;;16.60;99.90;;;;;;4970939;28;20114;-83
2023/05/09 05:26:42;;;;;;;62.97;35.63;;;16.60;99.90;;;;;;4970714;28;20023;-84
2023/05/09 05:29:07;;;;;;;49.47;32.40;;;16.60;99.90;;;;;;4969602;28;20865;-81
2023/05/09 05:31:33;;;;;;;45.50;31.38;;;16.60;99.90;;;;;;4967826;28;20721;-82
2023/05/09 05:33:59;;;;;;;62.53;39.03;;;16.70;99.90;;;;;;4967799;28;20046;-84
2023/05/09 05:36:24;;;;;;;60.47;34.90;;;16.70;99.90;;;;;;4968485;28;20050;-83
2023/05/09 05:38:51;;;;;;;51.85;34.47;;;16.70;99.90;;;;;;4971525;28;20413;-83
2023/05/09 05:41:17;;;;;;;55.60;35.95;;;16.80;99.90;;;;;;4969558;28;20051;-83
2023/05/09 05:43:42;;;;;;;35.20;22.60;;;16.80;99.90;;;;;;4967833;28;20026;-82
2023/05/09 05:46:09;;;;;;;55.03;32.55;;;16.80;99.90;;;;;;4972255;28;20472;-83
2023/05/09 05:48:35;;;;;;;46.10;31.70;;;16.90;99.90;;;;;;4966863;28;20097;-83
2023/05/09 05:51:00;;;;;;;36.00;25.58;;;16.80;99.90;;;;;;4969633;28;20107;-82
2023/05/09 05:53:26;;;;;;;45.83;30.90;;;16.90;99.90;;;;;;4951347;28;20362;-84
2023/05/09 05:55:51;;;;;;;41.35;27.85;;;16.90;99.90;;;;;;4970249;28;20031;-85
2023/05/09 05:58:17;;;;;;;45.22;28.48;;;17.00;99.90;;;;;;4968113;28;20031;-82
2023/05/09 06:00:43;;;;;;;49.95;31.83;;;17.00;99.90;;;;;;4968462;28;20554;-82
2023/05/09 06:03:13;;;;;;;40.78;28.25;;;17.10;99.90;;;;;;4969308;28;20046;-82
2023/05/09 06:05:45;;;;;;;;;;;17.10;99.90;;;;;;4969612;28;20035;-80
2023/05/09 06:08:11;;;;;;;38.65;26.33;;;17.10;99.90;;;;;;4967656;28;19921;-84
2023/05/09 06:10:38;;;;;;;36.75;24.35;;;17.20;99.90;;;;;;4971980;28;20027;-83
2023/05/09 06:13:03;;;;;;;34.55;22.73;;;17.10;99.90;;;;;;4965492;28;20096;-81
2023/05/09 06:15:29;;;;;;;34.08;23.73;;;17.20;99.90;;;;;;4968252;28;20489;-82
2023/05/09 06:17:55;;;;;;;33.83;22.85;;;17.20;99.90;;;;;;4969996;28;20477;-82
2023/05/09 06:20:21;;;;;;;30.83;22.10;;;17.20;99.90;;;;;;4968729;28;20166;-81
2023/05/09 06:22:46;;;;;;;38.60;25.10;;;17.30;99.90;;;;;;4967011;28;20042;-82
2023/05/09 06:25:12;;;;;;;31.08;21.58;;;17.30;99.90;;;;;;4968574;28;20035;-81
2023/05/09 06:27:38;;;;;;;33.40;25.50;;;17.30;99.90;;;;;;4968652;28;20031;-82
2023/05/09 06:30:04;;;;;;;24.38;15.75;;;17.30;99.90;;;;;;4969759;28;20038;-81
2023/05/09 06:32:30;;;;;;;41.65;24.85;;;17.30;99.90;;;;;;4965778;28;20481;-81
2023/05/09 06:34:56;;;;;;;33.22;22.58;;;17.30;99.90;;;;;;4958618;28;20048;-81
2023/05/09 06:37:21;;;;;;;31.60;19.35;;;17.30;99.90;;;;;;4946139;29;20406;-83
2023/05/09 06:39:47;;;;;;;31.35;21.05;;;17.20;99.90;;;;;;4945161;29;20050;-80
2023/05/09 06:42:12;;;;;;;30.40;22.70;;;17.30;99.90;;;;;;4947427;29;20023;-82
2023/05/09 06:44:39;;;;;;;25.25;18.10;;;17.40;99.90;;;;;;4947618;29;20046;-79
2023/05/09 06:47:05;;;;;;;22.98;15.65;;;17.40;99.90;;;;;;4948889;29;20050;-78
2023/05/09 06:49:31;;;;;;;20.15;14.02;;;17.50;99.90;;;;;;4947555;29;20105;-78
2023/05/09 06:51:56;;;;;;;23.50;14.85;;;17.60;99.90;;;;;;4947434;29;20478;-79
2023/05/09 06:54:22;;;;;;;28.10;15.88;;;17.70;99.90;;;;;;4946910;29;20034;-79
2023/05/09 06:56:48;;;;;;;25.42;16.77;;;17.80;99.90;;;;;;4944506;29;20039;-78
2023/05/09 06:59:15;;;;;;;15.65;11.75;;;17.90;99.90;;;;;;4945896;29;20027;-77
2023/05/09 07:01:41;;;;;;;16.90;12.15;;;18.00;99.90;;;;;;4945007;29;20039;-78
2023/05/09 07:04:06;;;;;;;19.20;12.10;;;18.10;99.90;;;;;;4945872;29;20174;-77
2023/05/09 07:06:32;;;;;;;19.70;15.30;;;18.10;99.60;;;;;;4948469;29;20501;-78
2023/05/09 07:08:58;;;;;;;18.17;13.40;;;18.00;99.40;;;;;;4946586;29;20027;-78
2023/05/09 07:11:23;;;;;;;21.05;15.40;;;18.10;99.60;;;;;;4947407;29;20094;-78
2023/05/09 07:13:49;;;;;;;20.40;14.50;;;18.20;99.60;;;;;;4923585;29;20394;-78
2023/05/09 07:16:16;;;;;;;16.40;11.65;;;18.20;99.40;;;;;;4948386;29;21114;-77
2023/05/09 07:18:42;;;;;;;24.73;16.65;;;18.20;99.50;;;;;;4946389;29;20016;-78
2023/05/09 07:21:07;;;;;;;27.15;18.73;;;18.20;99.30;;;;;;4946063;29;20426;-77
2023/05/09 07:23:33;;;;;;;22.65;17.20;;;18.20;99.10;;;;;;4927647;29;20050;-76
2023/05/09 07:25:58;;;;;;;25.60;18.40;;;18.20;99.00;;;;;;4946224;28;20090;-77
2023/05/09 07:28:24;;;;;;;21.23;16.77;;;18.10;98.90;;;;;;4946686;29;20086;-79
2023/05/09 07:30:50;;;;;;;18.10;13.90;;;18.10;99.10;;;;;;4946823;29;20390;-78
2023/05/09 07:33:16;;;;;;;19.85;14.38;;;18.10;99.20;;;;;;4947075;29;20035;-77
2023/05/09 07:35:41;;;;;;;14.75;10.88;;;18.10;99.20;;;;;;4963709;28;20050;-77
2023/05/09 07:38:07;;;;;;;18.23;13.13;;;18.10;99.20;;;;;;4966439;28;20026;-79
2023/05/09 07:40:35;;;;;;;15.30;11.30;;;18.10;98.80;;;;;;4966918;28;21028;-79
2023/05/09 07:43:01;;;;;;;12.55;9.60;;;18.10;98.90;;;;;;4966500;28;20110;-80
2023/05/09 07:45:27;;;;;;;10.93;8.20;;;18.20;99.00;;;;;;4969636;28;20031;-79
2023/05/09 07:47:52;;;;;;;12.50;8.63;;;18.40;99.00;;;;;;4952195;28;20041;-80
2023/05/09 07:50:18;;;;;;;19.90;15.25;;;18.60;98.80;;;;;;4968632;28;20034;-79
2023/05/09 07:52:44;;;;;;;16.27;12.82;;;18.70;98.40;;;;;;4969646;28;20029;-81
2023/05/09 07:55:11;;;;;;;16.50;12.65;;;18.70;98.40;;;;;;4969663;28;20748;-80
2023/05/09 07:57:38;;;;;;;16.77;12.63;;;18.70;98.50;;;;;;4966322;28;21006;-80
2023/05/09 08:00:07;;;;;;;18.77;14.50;;;18.70;98.30;;;;;;4964395;28;20038;-79
2023/05/09 08:02:35;;;;;;;20.40;15.90;;;18.70;98.40;;;;;;4965966;28;20294;-78
2023/05/09 08:05:01;;;;;;;20.25;15.10;;;18.70;98.40;;;;;;4966063;28;20034;-76
2023/05/09 08:07:26;;;;;;;17.05;13.30;;;18.70;98.20;;;;;;4961348;28;20030;-77
2023/05/09 08:09:52;;;;;;;21.58;16.60;;;18.60;98.20;;;;;;4958227;28;20039;-77
2023/05/09 08:12:17;;;;;;;21.95;16.00;;;18.60;98.30;;;;;;4963344;28;20030;-77
2023/05/09 08:14:43;;;;;;;19.88;15.40;;;18.60;98.00;;;;;;4964192;28;20023;-78
2023/05/09 08:17:08;;;;;;;18.45;12.73;;;18.50;98.00;;;;;;4959577;28;20039;-77
2023/05/09 08:19:34;;;;;;;17.13;12.82;;;18.50;98.00;;;;;;4957519;28;20035;-78
2023/05/09 08:22:00;;;;;;;23.55;16.65;;;18.50;98.10;;;;;;4963158;28;20019;-78
2023/05/09 08:24:25;;;;;;;15.73;11.50;;;18.50;98.20;;;;;;4962333;28;20516;-77
2023/05/09 08:26:51;;;;;;;19.50;13.00;;;18.50;98.20;;;;;;4965788;28;20035;-77
2023/05/09 08:29:17;;;;;;;23.05;17.20;;;18.60;98.20;;;;;;4964004;28;20027;-77
2023/05/09 08:31:42;;;;;;;10.65;7.75;;;18.60;98.30;;;;;;4960280;28;20039;-75
2023/05/09 08:34:08;;;;;;;17.60;12.50;;;18.70;97.80;;;;;;4961493;28;20050;-76
2023/05/09 08:36:33;;;;;;;18.67;13.63;;;18.70;97.90;;;;;;4945004;28;20030;-77
2023/05/09 08:38:59;;;;;;;18.00;13.60;;;18.80;97.80;;;;;;4963319;28;20026;-77
2023/05/09 08:41:29;;;;;;;17.45;12.60;;;18.70;97.70;;;;;;4959820;28;20968;-77
2023/05/09 08:43:55;;;;;;;21.00;13.95;;;18.70;97.70;;;;;;4960832;28;20035;-75
2023/05/09 08:46:29;;;;;;;16.85;12.77;;;18.60;97.90;;;;;;4960633;28;20027;-76
2023/05/09 08:48:56;;;;;;;21.42;16.30;;;18.70;98.00;;;;;;4962195;28;20035;-75
2023/05/09 08:51:22;;;;;;;17.98;13.60;;;18.70;98.10;;;;;;4965061;28;20092;-75
2023/05/09 08:53:50;;;;;;;18.95;13.55;;;18.70;98.40;;;;;;4964315;28;20027;-76
2023/05/09 08:56:16;;;;;;;14.73;10.93;;;18.70;98.50;;;;;;4962289;28;20045;-75
2023/05/09 08:58:42;;;;;;;14.38;11.10;;;18.80;98.40;;;;;;4959732;28;20469;-76
2023/05/09 09:01:12;;;;;;;17.25;13.45;;;18.80;98.20;;;;;;4959204;28;20652;-76
2023/05/09 09:03:46;;;;;;;20.55;16.00;;;18.90;98.20;;;;;;4959945;28;20061;-76
2023/05/09 09:06:12;;;;;;;17.45;13.82;;;18.90;98.30;;;;;;4963882;28;20029;-77
2023/05/09 09:08:39;;;;;;;15.63;11.73;;;18.90;97.90;;;;;;4960735;28;20583;-77
2023/05/09 09:11:04;;;;;;;20.08;15.20;;;18.90;98.00;;;;;;4962195;28;20598;-74
2023/05/09 09:13:31;;;;;;;20.77;14.95;;;18.90;98.10;;;;;;4960457;28;20031;-79
2023/05/09 09:15:58;;;;;;;18.25;15.70;;;18.80;98.30;;;;;;4962990;28;20738;-77
2023/05/09 09:18:29;;;;;;;16.88;13.73;;;18.80;98.40;;;;;;4959679;28;20046;-78
2023/05/09 09:21:05;;;;;;;19.88;17.10;;;18.70;98.50;;;;;;4957378;28;20035;-78
2023/05/09 09:23:32;;;;;;;24.10;16.45;;;18.60;98.70;;;;;;4960499;28;20546;-77
2023/05/09 09:26:03;;;;;;;14.85;11.65;;;18.50;98.60;;;;;;4962038;28;20037;-76
2023/05/09 09:28:29;;;;;;;12.75;9.95;;;18.40;98.70;;;;;;4962745;28;20026;-77
2023/05/09 09:30:54;;;;;;;15.90;11.63;;;18.30;98.70;;;;;;4961369;28;20031;-76
2023/05/09 09:33:21;;;;;;;14.90;12.55;;;18.20;98.80;;;;;;4959359;28;20820;-77
2023/05/09 09:35:51;;;;;;;21.80;13.82;;;18.10;98.80;;;;;;4963116;28;20043;-81
2023/05/09 09:38:20;;;;;;;16.35;12.15;;;18.10;99.00;;;;;;4961243;28;20043;-75
2023/05/09 09:40:55;;;;;;;15.23;12.60;;;18.10;99.00;;;;;;4961420;28;20046;-79
2023/05/09 09:43:31;;;;;;;19.15;13.00;;;18.00;99.10;;;;;;4964491;28;20023;-80
2023/05/09 09:46:02;;;;;;;13.70;9.57;;;18.00;99.10;;;;;;4965396;28;20145;-78
2023/05/09 09:48:32;;;;;;;15.20;12.02;;;18.00;99.10;;;;;;4939899;28;20038;-78
2023/05/09 09:51:07;;;;;;;16.42;10.10;;;18.00;99.20;;;;;;4972390;28;20065;-78
2023/05/09 09:53:39;;;;;;;11.60;9.90;;;18.00;99.20;;;;;;4966225;28;20027;-78
2023/05/09 09:56:05;;;;;;;16.85;11.15;;;18.00;99.20;;;;;;4966262;28;20069;-78
2023/05/09 09:58:30;;;;;;;14.85;10.35;;;18.10;99.30;;;;;;4965039;28;20023;-79
2023/05/09 10:01:15;;;;;;;13.68;10.18;;;18.10;99.30;;;;;;4960167;28;20046;-78
2023/05/09 10:03:42;;;;;;;13.38;10.15;;;18.10;99.20;;;;;;4961677;28;20031;-77
2023/05/09 10:06:15;;;;;;;15.10;10.05;;;18.10;99.10;;;;;;4966838;28;20098;-79
2023/05/09 10:08:41;;;;;;;12.32;9.00;;;18.10;99.20;;;;;;4961824;28;20035;-76
2023/05/09 10:11:08;;;;;;;11.52;9.50;;;18.20;99.20;;;;;;4965989;28;20054;-79
2023/05/09 10:13:35;;;;;;;13.55;9.07;;;18.30;99.20;;;;;;4967146;28;20401;-80
2023/05/09 10:16:04;;;;;;;11.45;8.38;;;18.40;99.00;;;;;;4966002;28;20031;-87
2023/05/09 10:18:30;;;;;;;13.32;9.30;;;18.50;98.70;;;;;;4965631;28;20027;-77
2023/05/09 10:21:02;;;;;;;14.07;10.40;;;18.50;98.40;;;;;;4939393;28;20049;-80
2023/05/09 10:23:30;;;;;;;17.85;11.65;;;18.50;98.70;;;;;;4964087;28;20027;-79
2023/05/09 10:26:14;;;;;;;10.52;9.25;;;18.70;98.40;;;;;;4963817;28;20500;-76
2023/05/09 10:28:43;;;;;;;14.32;10.80;;;18.70;98.10;;;;;;4964132;28;20099;-80
2023/05/09 10:31:14;;;;;;;11.98;8.02;;;18.70;98.00;;;;;;4965175;28;20397;-77
2023/05/09 10:33:51;;;;;;;9.68;8.02;;;18.60;97.60;;;;;;4965895;28;20025;-77
2023/05/09 10:36:19;;;;;;;10.30;7.60;;;18.60;97.60;;;;;;4957956;28;20036;-76
2023/05/09 10:38:47;;;;;;;9.38;6.38;;;18.60;97.60;;;;;;4962486;28;20050;-78
2023/05/09 10:41:14;;;;;;;10.07;6.95;;;18.60;97.60;;;;;;4961898;28;20093;-76
2023/05/09 10:43:43;;;;;;;11.20;7.78;;;18.70;97.90;;;;;;4963892;28;20109;-76
2023/05/09 10:46:09;;;;;;;11.43;7.28;;;18.60;98.00;;;;;;4962585;28;20033;-77
2023/05/09 10:48:36;;;;;;;14.25;9.70;;;18.70;98.10;;;;;;4964637;28;20023;-77
2023/05/09 10:51:03;;;;;;;12.82;10.18;;;18.60;98.00;;;;;;4966769;28;20056;-77
2023/05/09 10:53:51;;;;;;;12.38;9.60;;;18.50;98.30;;;;;;4962553;28;20034;-76
2023/05/09 10:56:34;;;;;;;11.50;9.23;;;18.50;98.70;;;;;;4959106;28;20123;-77
2023/05/09 10:59:01;;;;;;;13.65;10.98;;;18.30;99.10;;;;;;4963755;28;20026;-76
2023/05/09 11:01:31;;;;;;;11.50;10.30;;;18.30;99.50;;;;;;4964598;28;20497;-75
2023/05/09 11:03:58;;;;;;;13.48;10.75;;;18.10;99.90;;;;;;4963473;28;20062;-77
2023/05/09 11:06:49;;;;;;;13.40;11.10;;;18.10;99.90;;;;;;4961682;28;20031;-77
2023/05/09 11:09:31;;;;;;;15.15;12.05;;;18.10;99.90;;;;;;4943606;28;20031;-76
2023/05/09 11:12:04;;;;;;;12.30;10.57;;;18.00;99.90;;;;;;4961174;28;20442;-78
2023/05/09 11:14:40;;;;;;;12.05;10.52;;;17.90;99.90;;;;;;4960651;28;20035;-80
2023/05/09 11:17:12;;;;;;;13.15;10.77;;;17.80;99.90;;;;;;4963197;28;20035;-79
2023/05/09 11:19:59;;;;;;;15.93;12.93;;;17.70;99.90;;;;;;4960681;28;20042;-77
2023/05/09 11:22:26;;;;;;;15.23;12.60;;;17.70;99.90;;;;;;4961536;28;20031;-79
2023/05/09 11:25:04;;;;;;;16.63;12.95;;;17.60;99.90;;;;;;4945148;28;20035;-81
2023/05/09 11:27:42;;;;;;;14.80;12.77;;;17.60;99.90;;;;;;4959203;28;20090;-75
2023/05/09 11:30:13;;;;;;;12.35;8.63;;;17.60;99.90;;;;;;4960537;28;20167;-79
2023/05/09 11:32:50;;;;;;;14.05;12.50;;;17.50;99.90;;;;;;4959844;28;20031;-78
2023/05/09 11:35:19;;;;;;;15.70;12.05;;;17.50;99.90;;;;;;4961935;28;20512;-77
2023/05/09 11:37:47;;;;;;;12.73;11.43;;;17.60;99.90;;;;;;4959931;28;20789;-79
2023/05/09 11:40:16;;;;;;;12.30;9.48;;;17.50;99.90;;;;;;4962289;28;20478;-81
2023/05/09 11:42:44;;;;;;;10.85;7.45;;;17.50;99.90;;;;;;4959799;28;20034;-76
2023/05/09 11:45:12;;;;;;;13.32;9.20;;;17.50;99.90;;;;;;4959641;28;20031;-78
2023/05/09 11:47:38;;;;;;;9.88;6.97;;;17.50;99.90;;;;;;4962941;28;20031;-77
2023/05/09 11:50:08;;;;;;;10.73;7.45;;;17.50;99.90;;;;;;4965512;28;20496;-76
2023/05/09 11:52:36;;;;;;;10.13;7.53;;;17.40;99.90;;;;;;4964593;28;20027;-76
2023/05/09 11:55:01;;;;;;;9.98;7.70;;;17.40;99.90;;;;;;4965081;28;20037;-77
2023/05/09 11:57:28;;;;;;;9.07;5.47;;;17.50;99.90;;;;;;4958126;28;20027;-77
2023/05/09 11:59:54;;;;;;;10.10;6.05;;;17.40;99.90;;;;;;4945155;28;20067;-78
2023/05/09 12:02:21;;;;;;;8.35;5.60;;;17.30;99.90;;;;;;4962709;28;20162;-77
2023/05/09 12:04:47;;;;;;;11.82;7.25;;;17.20;99.90;;;;;;4947593;28;20521;-77
2023/05/09 12:07:15;;;;;;;7.45;5.18;;;17.20;99.90;;;;;;4964643;28;20662;-75
2023/05/09 12:09:42;;;;;;;8.88;6.30;;;17.20;99.90;;;;;;4962460;28;20074;-76
2023/05/09 12:12:12;;;;;;;9.80;6.15;;;17.30;99.90;;;;;;4962812;28;20430;-76
2023/05/09 12:14:39;;;;;;;7.10;5.78;;;17.30;99.90;;;;;;4966655;28;20823;-78
2023/05/09 12:17:08;;;;;;;8.88;6.47;;;17.30;99.90;;;;;;4964534;28;20023;-76
2023/05/09 12:19:34;;;;;;;9.07;7.10;;;17.30;99.90;;;;;;4962549;28;20027;-78
2023/05/09 12:22:05;;;;;;;7.85;6.25;;;17.40;99.90;;;;;;4960480;28;20085;-77
2023/05/09 12:24:35;;;;;;;8.05;5.85;;;17.50;99.90;;;;;;4965832;28;20031;-77
2023/05/09 12:27:01;;;;;;;;;;;17.50;99.90;;;;;;4964535;28;20023;-77
2023/05/09 12:29:27;;;;;;;6.85;5.20;;;17.60;99.90;;;;;;4963158;28;20272;-76
2023/05/09 12:31:53;;;;;;;7.45;4.80;;;17.50;99.90;;;;;;4965040;28;20116;-78